createdAt,value
2023-03-27T00:00:40.239Z,0.0000
2023-03-27T00:01:41.168Z,0.0000
2023-03-27T00:02:41.865Z,0.0000
2023-03-27T00:03:42.605Z,0.0000
2023-03-27T00:04:42.932Z,0.0000
2023-03-27T00:05:44.006Z,0.0000
2023-03-27T00:06:44.813Z,0.0000
2023-03-27T00:07:45.832Z,0.0000
2023-03-27T00:08:46.705Z,0.0000
2023-03-27T00:09:47.608Z,0.0000
2023-03-27T00:10:48.523Z,0.0000
2023-03-27T00:11:48.628Z,0.0000
2023-03-27T00:12:49.601Z,0.0000
2023-03-27T00:13:51.571Z,0.0000
2023-03-27T00:14:51.045Z,0.0000
2023-03-27T00:15:52.004Z,0.0000
2023-03-27T00:16:53.034Z,0.0000
2023-03-27T00:17:53.339Z,0.0000
2023-03-27T00:18:54.202Z,0.0000
2023-03-27T00:19:55.315Z,0.0000
2023-03-27T00:20:56.173Z,0.0000
2023-03-27T00:21:56.527Z,0.0000
2023-03-27T00:22:57.353Z,0.0000
2023-03-27T00:23:58.093Z,0.0000
2023-03-27T00:24:58.962Z,0.0000
2023-03-27T00:25:59.668Z,0.0000
2023-03-27T00:27:00.543Z,0.0000
2023-03-27T00:28:01.446Z,0.0000
2023-03-27T00:29:02.185Z,0.0000
2023-03-27T00:30:03.124Z,0.0000
2023-03-27T00:31:03.880Z,0.0000
2023-03-27T00:32:04.916Z,0.0000
2023-03-27T00:33:06.162Z,0.0000
2023-03-27T00:34:06.817Z,0.0000
2023-03-27T00:35:07.805Z,0.0000
2023-03-27T00:36:08.803Z,0.0000
2023-03-27T00:37:09.778Z,0.0000
2023-03-27T00:38:10.555Z,0.0000
2023-03-27T00:39:11.453Z,0.0000
2023-03-27T00:40:12.478Z,0.0000
2023-03-27T00:41:13.820Z,0.0000
2023-03-27T00:42:14.845Z,0.0000
2023-03-27T00:43:15.605Z,0.0000
2023-03-27T00:44:16.564Z,0.0000
2023-03-27T00:45:17.485Z,0.0000
2023-03-27T00:46:18.443Z,0.0000
2023-03-27T00:47:18.608Z,0.0000
2023-03-27T00:48:19.651Z,0.0000
2023-03-27T00:50:21.363Z,0.0000
2023-03-27T00:51:21.534Z,0.0000
2023-03-27T00:52:22.376Z,0.0000
2023-03-27T00:53:23.275Z,0.0000
2023-03-27T00:54:24.277Z,0.0000
2023-03-27T00:55:25.097Z,0.0000
2023-03-27T00:56:26.092Z,0.0000
2023-03-27T00:57:26.992Z,0.0000
2023-03-27T00:58:27.986Z,0.0000
2023-03-27T00:59:28.977Z,0.0000
2023-03-27T01:00:29.705Z,0.0000
2023-03-27T01:01:30.933Z,0.0000
2023-03-27T01:02:31.918Z,0.0000
2023-03-27T01:03:32.311Z,0.0000
2023-03-27T01:04:33.670Z,0.0000
2023-03-27T01:05:34.494Z,0.0000
2023-03-27T01:06:35.495Z,0.0000
2023-03-27T01:07:36.273Z,0.0000
2023-03-27T01:10:38.506Z,0.0000
2023-03-27T01:11:39.465Z,0.0000
2023-03-27T01:12:40.209Z,0.0000
2023-03-27T01:13:41.172Z,0.0000
2023-03-27T01:14:42.298Z,0.0000
2023-03-27T01:15:43.161Z,0.0000
2023-03-27T01:16:44.199Z,0.0000
2023-03-27T01:17:45.144Z,0.0000
2023-03-27T01:18:46.220Z,0.0000
2023-03-27T01:19:47.210Z,0.0000
2023-03-27T01:20:48.062Z,0.0000
2023-03-27T01:21:49.069Z,0.0000
2023-03-27T01:22:49.859Z,0.0000
2023-03-27T01:23:59.925Z,0.0000
2023-03-27T01:24:51.012Z,0.0000
2023-03-27T01:25:52.010Z,0.0000
2023-03-27T01:26:52.793Z,0.0000
2023-03-27T01:27:53.905Z,0.0000
2023-03-27T01:29:55.525Z,0.0000
2023-03-27T01:30:56.763Z,0.0000
2023-03-27T01:31:56.813Z,0.0000
2023-03-27T01:32:57.928Z,0.0000
2023-03-27T01:33:58.857Z,0.0000
2023-03-27T01:35:01.140Z,0.0000
2023-03-27T01:36:00.875Z,0.0000
2023-03-27T01:37:01.679Z,0.0000
2023-03-27T01:38:02.700Z,0.0000
2023-03-27T01:39:03.502Z,0.0000
2023-03-27T01:40:04.381Z,0.0000
2023-03-27T01:41:05.417Z,0.0000
2023-03-27T01:42:06.277Z,0.0000
2023-03-27T01:43:07.315Z,0.0000
2023-03-27T01:44:08.133Z,0.0000
2023-03-27T01:45:08.265Z,0.0000
2023-03-27T01:46:09.314Z,0.0000
2023-03-27T01:48:11.309Z,0.0000
2023-03-27T01:49:12.108Z,0.0000
2023-03-27T01:50:13.092Z,0.0000
2023-03-27T01:52:14.751Z,0.0000
2023-03-27T01:53:15.752Z,0.0000
2023-03-27T01:54:16.638Z,0.0000
2023-03-27T01:55:17.536Z,0.0000
2023-03-27T01:56:18.450Z,0.0000
2023-03-27T01:57:19.555Z,0.0000
2023-03-27T01:59:20.288Z,0.0000
2023-03-27T02:00:21.637Z,0.0000
2023-03-27T02:01:21.917Z,0.0000
2023-03-27T02:02:22.900Z,0.0000
2023-03-27T02:03:23.920Z,0.0000
2023-03-27T02:05:24.840Z,0.0000
2023-03-27T02:06:25.772Z,0.0000
2023-03-27T02:07:26.720Z,0.0000
2023-03-27T02:08:27.676Z,0.0000
2023-03-27T02:09:28.489Z,0.0000
2023-03-27T02:10:29.506Z,0.0000
2023-03-27T02:11:29.578Z,0.0000
2023-03-27T02:12:30.545Z,0.0000
2023-03-27T02:13:31.542Z,0.0000
2023-03-27T02:14:32.381Z,0.0000
2023-03-27T02:15:33.002Z,0.0000
2023-03-27T02:16:34.143Z,0.0000
2023-03-27T02:17:34.506Z,0.0000
2023-03-27T02:18:35.582Z,0.0000
2023-03-27T02:19:36.382Z,0.0000
2023-03-27T02:21:38.317Z,0.0000
2023-03-27T02:22:39.918Z,0.0000
2023-03-27T02:23:40.757Z,0.0000
2023-03-27T02:24:41.752Z,0.0000
2023-03-27T02:25:42.771Z,0.0000
2023-03-27T02:26:43.651Z,0.0000
2023-03-27T02:27:44.610Z,0.0000
2023-03-27T02:28:45.414Z,0.0000
2023-03-27T02:29:46.405Z,0.0000
2023-03-27T02:30:47.368Z,0.0000
2023-03-27T02:31:47.800Z,0.0000
2023-03-27T02:32:48.242Z,0.0000
2023-03-27T02:33:49.481Z,0.0000
2023-03-27T02:34:50.359Z,0.0000
2023-03-27T02:35:51.611Z,0.0000
2023-03-27T02:36:52.535Z,0.0000
2023-03-27T02:37:52.602Z,0.0000
2023-03-27T02:38:53.684Z,0.0000
2023-03-27T02:41:56.057Z,0.0000
2023-03-27T02:42:57.004Z,0.0000
2023-03-27T02:43:58.119Z,0.0000
2023-03-27T02:44:58.250Z,0.0000
2023-03-27T02:45:59.692Z,0.0000
2023-03-27T02:47:00.606Z,0.0000
2023-03-27T02:49:02.479Z,0.0000
2023-03-27T02:50:03.521Z,0.0000
2023-03-27T02:51:04.365Z,0.0000
2023-03-27T02:52:05.331Z,0.0000
2023-03-27T02:53:06.530Z,0.0000
2023-03-27T02:54:07.338Z,0.0000
2023-03-27T02:55:08.286Z,0.0000
2023-03-27T02:56:09.089Z,0.0000
2023-03-27T02:57:10.287Z,0.0000
2023-03-27T02:58:10.526Z,0.0000
2023-03-27T03:00:11.566Z,0.0000
2023-03-27T03:01:11.855Z,0.0000
2023-03-27T03:02:12.943Z,0.0000
2023-03-27T03:03:13.966Z,0.0000
2023-03-27T03:04:14.164Z,0.0000
2023-03-27T03:05:14.985Z,0.0000
2023-03-27T03:06:15.995Z,0.0000
2023-03-27T03:07:16.856Z,0.0000
2023-03-27T03:08:17.804Z,0.0000
2023-03-27T03:09:18.851Z,0.0000
2023-03-27T03:10:20.224Z,0.0000
2023-03-27T03:11:20.338Z,0.0000
2023-03-27T03:12:21.176Z,0.0000
2023-03-27T03:13:22.209Z,0.0000
2023-03-27T03:14:23.269Z,0.0000
2023-03-27T03:15:24.113Z,0.0000
2023-03-27T03:16:24.339Z,0.0000
2023-03-27T03:17:25.417Z,0.0000
2023-03-27T03:18:26.680Z,0.0000
2023-03-27T03:19:27.477Z,0.0000
2023-03-27T03:20:28.517Z,0.0000
2023-03-27T03:21:29.524Z,0.0000
2023-03-27T03:22:30.406Z,0.0000
2023-03-27T03:23:31.447Z,0.0000
2023-03-27T03:24:32.886Z,0.0000
2023-03-27T03:25:33.867Z,0.0000
2023-03-27T03:26:34.048Z,0.0000
2023-03-27T03:27:35.081Z,0.0000
2023-03-27T03:28:36.255Z,0.0000
2023-03-27T03:30:37.571Z,0.0000
2023-03-27T03:31:37.514Z,0.0000
2023-03-27T03:32:37.803Z,0.0000
2023-03-27T03:33:37.897Z,0.0000
2023-03-27T03:34:38.917Z,0.0000
2023-03-27T03:35:40.098Z,0.0000
2023-03-27T03:36:41.248Z,0.0000
2023-03-27T03:37:42.381Z,0.0000
2023-03-27T03:38:42.535Z,0.0000
2023-03-27T03:39:43.618Z,0.0000
2023-03-27T03:41:45.571Z,0.0000
2023-03-27T03:42:45.695Z,0.0000
2023-03-27T03:43:46.665Z,0.0000
2023-03-27T03:44:47.712Z,0.0000
2023-03-27T03:45:48.978Z,0.0000
2023-03-27T03:46:49.267Z,0.0000
2023-03-27T03:47:50.530Z,0.0000
2023-03-27T03:48:51.465Z,0.0000
2023-03-27T03:49:52.641Z,0.0000
2023-03-27T03:50:53.899Z,0.0000
2023-03-27T03:52:04.437Z,0.0000
2023-03-27T03:52:56.146Z,0.0000
2023-03-27T03:53:57.278Z,0.0000
2023-03-27T03:54:58.200Z,0.0000
2023-03-27T03:55:59.193Z,0.0000
2023-03-27T03:57:00.556Z,0.0000
2023-03-27T03:58:00.604Z,0.0000
2023-03-27T03:59:01.648Z,0.0000
2023-03-27T04:00:02.705Z,0.0000
2023-03-27T04:01:03.585Z,0.0000
2023-03-27T04:04:07.005Z,0.0000
2023-03-27T04:05:11.329Z,0.0000
2023-03-27T04:07:11.421Z,0.0000
2023-03-27T04:08:12.583Z,0.0000
2023-03-27T04:09:13.561Z,0.0000
2023-03-27T04:10:14.920Z,0.0000
2023-03-27T04:11:15.863Z,0.0000
2023-03-27T04:12:16.982Z,0.0000
2023-03-27T04:13:18.125Z,0.0000
2023-03-27T04:14:19.115Z,0.0000
2023-03-27T04:15:20.205Z,0.0000
2023-03-27T04:16:21.443Z,0.0000
2023-03-27T04:17:22.573Z,0.0000
2023-03-27T04:18:23.202Z,0.0000
2023-03-27T04:19:23.834Z,0.0000
2023-03-27T04:20:23.524Z,0.0000
2023-03-27T04:21:24.622Z,0.0000
2023-03-27T04:22:25.716Z,0.0000
2023-03-27T04:24:27.335Z,0.0000
2023-03-27T04:25:28.646Z,0.0000
2023-03-27T04:26:29.890Z,0.0000
2023-03-27T04:27:31.065Z,0.0000
2023-03-27T04:28:32.010Z,0.0000
2023-03-27T04:29:33.083Z,0.0000
2023-03-27T04:30:34.116Z,0.0000
2023-03-27T04:31:35.353Z,0.0000
2023-03-27T04:32:36.561Z,0.0000
2023-03-27T04:33:37.743Z,0.0000
2023-03-27T04:34:37.616Z,0.0000
2023-03-27T04:36:39.951Z,0.0000
2023-03-27T04:37:41.103Z,0.0000
2023-03-27T04:38:42.244Z,0.0000
2023-03-27T04:39:43.246Z,0.0000
2023-03-27T04:40:43.488Z,0.0000
2023-03-27T04:41:44.629Z,0.0000
2023-03-27T04:44:47.633Z,0.0000
2023-03-27T04:45:48.771Z,0.0000
2023-03-27T04:46:49.799Z,0.0000
2023-03-27T04:48:50.885Z,0.0000
2023-03-27T04:49:51.989Z,0.0000
2023-03-27T04:50:52.948Z,0.0000
2023-03-27T04:51:54.109Z,0.0000
2023-03-27T04:52:55.228Z,0.0000
2023-03-27T04:53:56.164Z,0.0000
2023-03-27T04:54:57.265Z,0.0000
2023-03-27T04:55:58.216Z,0.0000
2023-03-27T04:59:00.227Z,0.0000
2023-03-27T05:01:02.065Z,0.0000
2023-03-27T05:03:02.830Z,0.0000
2023-03-27T05:04:04.268Z,0.0000
2023-03-27T05:05:04.497Z,0.0000
2023-03-27T05:06:05.021Z,3.4012
2023-03-27T05:07:05.345Z,5.6250
2023-03-27T05:08:06.116Z,5.6250
2023-03-27T05:09:07.255Z,5.6250
2023-03-27T05:10:08.179Z,5.6250
2023-03-27T05:11:09.442Z,11.2500
2023-03-27T05:12:09.725Z,11.2500
2023-03-27T05:13:11.239Z,11.2500
2023-03-27T05:14:11.519Z,16.6134
2023-03-27T05:15:11.895Z,16.8750
2023-03-27T05:16:11.966Z,16.8750
2023-03-27T05:17:12.637Z,21.8459
2023-03-27T05:18:12.927Z,22.5000
2023-03-27T05:19:13.723Z,23.5096
2023-03-27T05:20:14.896Z,28.1250
2023-03-27T05:21:16.109Z,30.2180
2023-03-27T05:22:17.020Z,33.7500
2023-03-27T05:23:17.396Z,38.9826
2023-03-27T05:24:17.518Z,42.2529
2023-03-27T05:26:19.129Z,52.7983
2023-03-27T05:27:19.524Z,59.9128
2023-03-27T05:28:19.521Z,66.1919
2023-03-27T05:29:20.215Z,72.9942
2023-03-27T05:30:20.640Z,73.1250
2023-03-27T05:32:21.282Z,82.9018
2023-03-27T05:33:22.389Z,87.9070
2023-03-27T05:34:23.709Z,93.5795
2023-03-27T05:35:24.262Z,95.6250
2023-03-27T05:36:25.026Z,98.5029
2023-03-27T05:37:26.995Z,105.4360
2023-03-27T05:38:25.760Z,101.5179
2023-03-27T05:41:28.090Z,101.6424
2023-03-27T05:42:29.323Z,106.8750
2023-03-27T05:43:30.344Z,106.8750
2023-03-27T05:44:30.707Z,110.1453
2023-03-27T05:45:32.024Z,112.5000
2023-03-27T05:46:32.621Z,114.2308
2023-03-27T05:47:32.749Z,118.1250
2023-03-27T05:48:33.187Z,118.1250
2023-03-27T05:49:34.713Z,120.6696
2023-03-27T05:50:35.725Z,123.7500
2023-03-27T05:51:36.433Z,127.2820
2023-03-27T05:52:36.467Z,134.7039
2023-03-27T05:53:37.377Z,140.3693
2023-03-27T05:54:38.545Z,146.8892
2023-03-27T05:55:39.515Z,151.8750
2023-03-27T05:56:40.881Z,155.3571
2023-03-27T05:57:42.124Z,162.6136
2023-03-27T05:58:43.050Z,171.4347
2023-03-27T05:59:44.175Z,176.9318
2023-03-27T06:00:45.161Z,183.1960
2023-03-27T06:01:45.421Z,186.4099
2023-03-27T06:02:46.055Z,191.2500
2023-03-27T06:04:46.910Z,191.2500
2023-03-27T06:05:48.076Z,193.8068
2023-03-27T06:06:48.582Z,196.8750
2023-03-27T06:07:48.968Z,196.6071
2023-03-27T06:08:50.140Z,196.8750
2023-03-27T06:09:51.391Z,197.8977
2023-03-27T06:10:52.560Z,204.4176
2023-03-27T06:11:53.172Z,208.1250
2023-03-27T06:12:54.192Z,208.1250
2023-03-27T06:13:55.825Z,211.9602
2023-03-27T06:14:56.120Z,214.8214
2023-03-27T06:15:56.640Z,222.1221
2023-03-27T06:17:57.518Z,236.1222
2023-03-27T06:18:57.547Z,244.2296
2023-03-27T06:19:58.535Z,261.8182
2023-03-27T06:20:59.289Z,275.7558
2023-03-27T06:21:59.490Z,285.1339
2023-03-27T06:23:00.688Z,320.6250
2023-03-27T06:24:01.786Z,361.2784
2023-03-27T06:25:02.682Z,403.2994
2023-03-27T06:26:03.898Z,413.8210
2023-03-27T06:27:04.887Z,406.0227
2023-03-27T06:28:04.959Z,363.3482
2023-03-27T06:29:08.524Z,342.4858
2023-03-27T06:30:07.310Z,326.1161
2023-03-27T06:31:08.535Z,316.5341
2023-03-27T06:32:08.534Z,322.9796
2023-03-27T06:33:09.694Z,338.1541
2023-03-27T06:34:10.911Z,369.4602
2023-03-27T06:35:12.039Z,379.6875
2023-03-27T06:36:12.782Z,363.6058
2023-03-27T06:37:12.792Z,381.1919
2023-03-27T06:38:14.023Z,389.6591
2023-03-27T06:39:15.231Z,381.3494
2023-03-27T06:40:16.408Z,365.7528
2023-03-27T06:41:17.601Z,361.5341
2023-03-27T06:42:18.841Z,381.9886
2023-03-27T06:43:19.928Z,400.1421
2023-03-27T06:44:19.964Z,400.6831
2023-03-27T06:45:21.073Z,403.7216
2023-03-27T06:46:21.126Z,398.3285
2023-03-27T06:47:21.445Z,395.6250
2023-03-27T06:48:23.400Z,398.5417
2023-03-27T06:49:23.214Z,418.6046
2023-03-27T06:50:24.315Z,412.2869
2023-03-27T06:51:24.805Z,435.8721
2023-03-27T06:52:25.846Z,439.5171
2023-03-27T06:55:27.475Z,437.1635
2023-03-27T06:57:29.715Z,418.8068
2023-03-27T06:58:30.888Z,449.3608
2023-03-27T06:59:31.915Z,456.3921
2023-03-27T07:00:33.068Z,428.9062
2023-03-27T07:01:34.403Z,422.6421
2023-03-27T07:02:35.727Z,407.8125
2023-03-27T07:03:35.824Z,383.8081
2023-03-27T07:04:36.839Z,380.1989
2023-03-27T07:05:37.991Z,377.6562
2023-03-27T07:06:39.564Z,382.5000
2023-03-27T07:07:40.331Z,390.8036
2023-03-27T07:08:38.994Z,404.5673
2023-03-27T07:09:40.166Z,425.3571
2023-03-27T07:10:40.128Z,423.4448
2023-03-27T07:11:40.533Z,413.6250
2023-03-27T07:12:41.709Z,432.8693
2023-03-27T07:13:42.911Z,462.2727
2023-03-27T07:14:43.921Z,436.8324
2023-03-27T07:15:45.146Z,432.8693
2023-03-27T07:16:45.340Z,446.0756
2023-03-27T07:17:50.300Z,482.5658
2023-03-27T07:18:50.323Z,487.2820
2023-03-27T07:19:51.600Z,426.2946
2023-03-27T07:20:52.810Z,386.7188
2023-03-27T07:21:53.045Z,377.6599
2023-03-27T07:22:56.418Z,387.1023
2023-03-27T07:23:54.354Z,398.5518
2023-03-27T07:24:55.446Z,413.4375
2023-03-27T07:25:56.820Z,438.3665
2023-03-27T07:26:56.686Z,444.5058
2023-03-27T07:27:57.850Z,437.9829
2023-03-27T07:29:00.612Z,432.0536
2023-03-27T07:29:59.442Z,428.3036
2023-03-27T07:31:01.337Z,436.4489
2023-03-27T07:33:02.938Z,459.7610
2023-03-27T07:34:04.196Z,444.2442
2023-03-27T07:35:05.310Z,430.8239
2023-03-27T07:36:05.651Z,424.4913
2023-03-27T07:37:06.911Z,430.3125
2023-03-27T07:38:07.593Z,457.5872
2023-03-27T07:39:08.853Z,504.2046
2023-03-27T07:40:09.850Z,535.2699
2023-03-27T07:41:11.033Z,552.2727
2023-03-27T07:42:12.174Z,573.3665
2023-03-27T07:43:13.228Z,615.0426
2023-03-27T07:44:14.412Z,688.0398
2023-03-27T07:45:14.589Z,759.7675
2023-03-27T07:46:14.775Z,810.3925
2023-03-27T07:47:15.995Z,817.1591
2023-03-27T07:48:17.333Z,796.8324
2023-03-27T07:49:17.549Z,807.2529
2023-03-27T07:50:17.989Z,849.2188
2023-03-27T07:51:19.044Z,833.6250
2023-03-27T07:52:20.109Z,767.5568
2023-03-27T07:53:33.269Z,749.1094
2023-03-27T07:54:21.009Z,758.2169
2023-03-27T07:56:23.092Z,659.0199
2023-03-27T07:57:23.797Z,571.0029
2023-03-27T07:58:25.422Z,598.5577
2023-03-27T07:59:26.622Z,648.4091
2023-03-27T08:00:27.883Z,599.4460
2023-03-27T08:01:28.907Z,586.7898
2023-03-27T08:02:30.122Z,615.9375
2023-03-27T08:03:31.365Z,609.9855
2023-03-27T08:04:32.167Z,593.3036
2023-03-27T08:05:32.419Z,576.7587
2023-03-27T08:06:32.867Z,546.8023
2023-03-27T08:07:33.861Z,574.5170
2023-03-27T08:08:35.009Z,640.0994
2023-03-27T08:09:35.129Z,883.6483
2023-03-27T08:10:36.325Z,804.3750
2023-03-27T08:11:36.670Z,780.5769
2023-03-27T08:12:37.694Z,820.9943
2023-03-27T08:13:38.891Z,1130.2415
2023-03-27T08:14:39.939Z,916.4915
2023-03-27T08:15:41.098Z,848.0966
2023-03-27T08:16:41.793Z,735.4360
2023-03-27T08:18:43.894Z,608.6506
2023-03-27T08:19:45.147Z,565.9517
2023-03-27T08:20:46.113Z,505.3551
2023-03-27T08:21:47.451Z,451.4062
2023-03-27T08:22:48.486Z,421.4915
2023-03-27T08:23:49.634Z,406.4062
2023-03-27T08:24:50.743Z,399.6307
2023-03-27T08:25:51.770Z,407.8125
2023-03-27T08:26:53.110Z,420.3409
2023-03-27T08:27:54.189Z,437.3438
2023-03-27T08:28:55.354Z,453.0682
2023-03-27T08:29:56.671Z,470.8381
2023-03-27T08:31:02.905Z,471.5625
2023-03-27T08:31:58.198Z,430.2404
2023-03-27T08:32:59.466Z,387.7415
2023-03-27T08:33:59.533Z,368.8954
2023-03-27T08:35:00.581Z,387.1023
2023-03-27T08:37:02.206Z,380.9659
2023-03-27T08:38:04.667Z,371.2500
2023-03-27T08:39:04.688Z,389.9493
2023-03-27T08:40:05.811Z,417.9119
2023-03-27T08:41:07.058Z,427.5000
2023-03-27T08:42:08.113Z,422.3864
2023-03-27T08:43:09.280Z,387.1023
2023-03-27T08:44:10.306Z,356.8040
2023-03-27T08:45:11.455Z,352.2017
2023-03-27T08:46:12.620Z,355.0291
2023-03-27T08:47:12.581Z,358.1686
2023-03-27T08:48:13.923Z,371.6335
2023-03-27T08:49:15.007Z,413.4375
2023-03-27T08:50:16.159Z,465.4688
2023-03-27T08:51:17.346Z,469.8153
2023-03-27T08:52:18.384Z,442.4574
2023-03-27T08:53:19.608Z,413.5653
2023-03-27T08:54:20.154Z,391.0714
2023-03-27T08:55:21.437Z,390.8097
2023-03-27T08:56:22.046Z,408.9244
2023-03-27T08:57:22.365Z,443.5901
2023-03-27T08:58:23.633Z,499.8579
2023-03-27T08:59:24.080Z,540.9604
2023-03-27T09:00:25.344Z,551.7614
2023-03-27T09:01:25.410Z,559.7529
2023-03-27T09:02:25.420Z,595.0727
2023-03-27T09:03:25.820Z,630.1339
2023-03-27T09:04:25.893Z,624.3750
2023-03-27T09:05:27.220Z,585.7670
2023-03-27T09:06:27.614Z,568.7791
2023-03-27T09:07:28.947Z,574.1335
2023-03-27T09:08:28.972Z,574.7965
2023-03-27T09:09:28.968Z,580.0291
2023-03-27T09:10:29.151Z,596.6425
2023-03-27T09:11:29.529Z,607.6308
2023-03-27T09:12:30.330Z,595.0727
2023-03-27T09:13:30.705Z,565.1163
2023-03-27T09:14:31.977Z,551.2500
2023-03-27T09:15:33.094Z,547.9261
2023-03-27T09:16:33.256Z,524.3023
2023-03-27T09:17:34.677Z,489.1193
2023-03-27T09:18:35.806Z,464.1903
2023-03-27T09:19:37.019Z,470.9659
2023-03-27T09:20:38.170Z,516.9886
2023-03-27T09:21:39.442Z,559.0483
2023-03-27T09:23:40.438Z,616.7045
2023-03-27T09:24:41.868Z,667.3295
2023-03-27T09:25:42.954Z,710.5398
2023-03-27T09:26:43.535Z,755.1890
2023-03-27T09:27:44.432Z,810.6429
2023-03-27T09:28:46.874Z,822.0170
2023-03-27T09:29:46.415Z,780.9375
2023-03-27T09:30:46.633Z,745.3125
2023-03-27T09:31:47.148Z,706.7878
2023-03-27T09:34:49.758Z,580.6534
2023-03-27T09:35:50.263Z,555.8285
2023-03-27T09:36:50.724Z,548.2413
2023-03-27T09:37:51.227Z,559.0701
2023-03-27T09:38:52.517Z,589.0909
2023-03-27T09:39:53.631Z,632.3011
2023-03-27T09:41:55.991Z,760.6534
2023-03-27T09:43:56.970Z,887.8551
2023-03-27T09:44:58.266Z,926.2074
2023-03-27T09:45:59.374Z,944.1051
2023-03-27T09:50:02.845Z,990.7670
2023-03-27T09:51:03.207Z,1035.1309
2023-03-27T09:52:04.620Z,1123.5938
2023-03-27T09:53:05.762Z,1267.2870
2023-03-27T09:55:08.023Z,1677.7841
2023-03-27T09:56:09.272Z,1869.0341
2023-03-27T09:57:10.607Z,1888.0824
2023-03-27T09:58:10.589Z,1814.6511
2023-03-27T09:59:11.875Z,1753.7216
2023-03-27T10:00:12.973Z,1695.9375
2023-03-27T10:01:13.527Z,1699.2733
2023-03-27T10:02:14.870Z,1804.2188
2023-03-27T10:03:14.999Z,1986.0175
2023-03-27T10:04:15.803Z,2073.3481
2023-03-27T10:05:15.810Z,1959.5930
2023-03-27T10:07:18.219Z,1605.8097
2023-03-27T10:08:19.538Z,1414.1761
2023-03-27T10:09:20.396Z,1261.3081
2023-03-27T10:10:21.701Z,1114.1335
2023-03-27T10:11:22.848Z,991.4062
2023-03-27T10:12:24.136Z,924.1619
2023-03-27T10:13:24.111Z,936.8895
2023-03-27T10:14:25.245Z,1059.9290
2023-03-27T10:15:25.740Z,1280.1923
2023-03-27T10:16:27.077Z,1528.8495
2023-03-27T10:17:27.261Z,2248.4302
2023-03-27T10:18:27.294Z,1863.1831
2023-03-27T10:19:27.252Z,1612.1511
2023-03-27T10:20:28.505Z,1491.1364
2023-03-27T10:21:28.564Z,1459.3605
2023-03-27T10:22:29.021Z,1551.0610
2023-03-27T10:23:30.283Z,1678.4233
2023-03-27T10:25:31.211Z,1663.5938
2023-03-27T10:26:32.500Z,1593.9204
2023-03-27T10:29:36.760Z,1666.2784
2023-03-27T10:30:36.216Z,1514.5983
2023-03-27T10:32:37.687Z,1398.7074
2023-03-27T10:33:38.632Z,1464.2006
2023-03-27T10:34:39.764Z,1426.8324
2023-03-27T10:35:40.173Z,1484.3140
2023-03-27T10:36:41.618Z,1589.4460
2023-03-27T10:37:50.141Z,1577.6847
2023-03-27T10:38:44.271Z,1562.4519
2023-03-27T10:39:45.587Z,1606.4489
2023-03-27T10:40:45.570Z,1604.5640
2023-03-27T10:41:45.942Z,1584.7698
2023-03-27T10:42:47.299Z,1605.4261
2023-03-27T10:43:48.443Z,2025.8949
2023-03-27T10:44:48.495Z,1728.4448
2023-03-27T10:45:50.016Z,1724.5739
2023-03-27T10:46:50.079Z,1776.5844
2023-03-27T10:48:51.472Z,1639.0483
2023-03-27T10:49:52.501Z,1617.3214
2023-03-27T10:50:53.609Z,1669.6023
2023-03-27T10:51:54.001Z,1706.1057
2023-03-27T10:52:54.122Z,1729.2296
2023-03-27T10:53:55.287Z,1612.1511
2023-03-27T10:54:56.389Z,1511.7858
2023-03-27T10:55:57.682Z,1345.6534
2023-03-27T10:56:57.920Z,1247.4419
2023-03-27T10:57:59.277Z,1202.9829
2023-03-27T10:59:00.413Z,1182.1449
2023-03-27T11:00:01.298Z,1168.5536
2023-03-27T11:01:02.976Z,1199.2755
2023-03-27T11:02:02.965Z,1264.9709
2023-03-27T11:03:03.907Z,1273.6608
2023-03-27T11:04:05.263Z,1171.1505
2023-03-27T11:06:06.359Z,1115.9233
2023-03-27T11:07:07.623Z,1238.7784
2023-03-27T11:08:08.031Z,1352.3323
2023-03-27T11:09:09.336Z,1533.1960
2023-03-27T11:10:10.615Z,1665.6392
2023-03-27T11:11:11.747Z,1634.7017
2023-03-27T11:12:13.066Z,1536.1364
2023-03-27T11:13:14.298Z,1405.2273
2023-03-27T11:14:15.622Z,1426.1932
2023-03-27T11:16:16.751Z,1557.1023
2023-03-27T11:17:17.490Z,1581.4099
2023-03-27T11:18:18.247Z,1561.6406
2023-03-27T11:19:19.577Z,1563.1108
2023-03-27T11:20:20.666Z,1537.0312
2023-03-27T11:21:21.911Z,1524.1193
2023-03-27T11:22:23.214Z,1509.1620
2023-03-27T11:23:24.341Z,1448.9489
2023-03-27T11:24:25.661Z,1451.1222
2023-03-27T11:25:26.887Z,1432.3296
2023-03-27T11:26:28.133Z,1350.7671
2023-03-27T11:27:29.494Z,1331.0796
2023-03-27T11:28:30.591Z,1298.8636
2023-03-27T11:29:31.874Z,1286.7188
2023-03-27T11:30:32.957Z,1376.2074
2023-03-27T11:31:33.645Z,1331.5385
2023-03-27T11:33:34.907Z,1387.0739
2023-03-27T11:34:35.319Z,1425.5769
2023-03-27T11:36:37.897Z,1441.4062
2023-03-27T11:37:39.064Z,1406.3778
2023-03-27T11:38:39.138Z,1337.9651
2023-03-27T11:40:41.397Z,1236.9886
2023-03-27T11:41:42.173Z,1219.7094
2023-03-27T11:42:42.130Z,1201.0029
2023-03-27T11:43:42.270Z,1154.5640
2023-03-27T11:44:43.544Z,1098.0255
2023-03-27T11:45:43.593Z,1055.9302
2023-03-27T11:47:44.026Z,1169.8691
2023-03-27T11:48:44.222Z,1319.5204
2023-03-27T11:49:44.267Z,892.8052
2023-03-27T11:50:45.449Z,867.4006
2023-03-27T11:51:45.467Z,871.0901
2023-03-27T11:52:46.700Z,903.1960
2023-03-27T11:53:46.815Z,935.1890
2023-03-27T11:54:48.015Z,980.5398
2023-03-27T11:55:48.012Z,1052.6599
2023-03-27T11:56:49.267Z,1129.8579
2023-03-27T11:57:49.404Z,1200.3489
2023-03-27T11:58:50.652Z,1277.2585
2023-03-27T11:59:50.723Z,1352.7471
2023-03-27T12:01:52.962Z,1437.7233
2023-03-27T12:02:53.688Z,1480.5524
2023-03-27T12:03:53.894Z,1508.8392
2023-03-27T12:04:54.238Z,1525.0291
2023-03-27T12:05:54.314Z,1524.5059
2023-03-27T12:06:56.997Z,1460.4546
2023-03-27T12:07:55.720Z,1405.1250
2023-03-27T12:08:56.718Z,1360.2035
2023-03-27T12:09:57.922Z,1309.7301
2023-03-27T12:10:58.138Z,1232.5291
2023-03-27T12:11:58.106Z,1202.7035
2023-03-27T12:12:59.419Z,1220.2415
2023-03-27T12:14:06.961Z,1174.9432
2023-03-27T12:15:03.454Z,925.2000
2023-03-27T12:16:04.676Z,873.1534
2023-03-27T12:17:04.872Z,817.8488
2023-03-27T12:18:06.279Z,787.8835
2023-03-27T12:19:20.976Z,782.0759
2023-03-27T12:20:08.800Z,776.8581
2023-03-27T12:21:09.231Z,779.4231
2023-03-27T12:22:21.009Z,774.9716
2023-03-27T12:23:11.419Z,744.4286
2023-03-27T12:24:12.610Z,723.3239
2023-03-27T12:25:13.069Z,713.5938
2023-03-27T12:26:13.127Z,704.4332
2023-03-27T12:27:14.366Z,697.5000
2023-03-27T12:28:23.061Z,695.7994
2023-03-27T12:29:23.203Z,688.9904
2023-03-27T12:30:15.580Z,685.8173
2023-03-27T12:31:15.575Z,681.0175
2023-03-27T12:32:15.892Z,685.2035
2023-03-27T12:33:16.152Z,689.4055
2023-03-27T12:34:16.150Z,697.7617
2023-03-27T12:36:16.732Z,663.7500
2023-03-27T12:37:16.733Z,640.4651
2023-03-27T12:38:17.980Z,631.5341
2023-03-27T12:39:18.113Z,631.9622
2023-03-27T12:40:19.329Z,649.8154
2023-03-27T12:41:19.372Z,669.8983
2023-03-27T12:42:20.634Z,692.2585
2023-03-27T12:43:21.254Z,721.3082
2023-03-27T12:44:22.508Z,758.2244
2023-03-27T12:45:22.544Z,813.2703
2023-03-27T12:46:23.562Z,877.8125
2023-03-27T12:47:23.397Z,934.3125
2023-03-27T12:48:24.692Z,997.5872
2023-03-27T12:49:31.576Z,1041.1483
2023-03-27T12:50:25.931Z,1074.5564
2023-03-27T12:51:26.635Z,1075.0291
2023-03-27T12:52:26.950Z,1065.3201
2023-03-27T12:53:26.788Z,1060.3779
2023-03-27T12:54:27.401Z,1024.7965
2023-03-27T12:55:28.613Z,986.1648
2023-03-27T12:56:28.890Z,954.5494
2023-03-27T12:57:29.700Z,982.4128
2023-03-27T12:58:29.765Z,922.5000
2023-03-27T12:59:29.834Z,905.4942
2023-03-27T13:00:30.009Z,933.0959
2023-03-27T13:01:38.894Z,972.0785
2023-03-27T13:02:32.258Z,978.9258
2023-03-27T13:03:32.866Z,961.0714
2023-03-27T13:04:33.175Z,937.0203
2023-03-27T13:06:35.299Z,939.7585
2023-03-27T13:08:36.767Z,999.0549
2023-03-27T13:09:37.988Z,1032.8267
2023-03-27T13:10:38.231Z,1084.8401
2023-03-27T13:11:38.726Z,1266.8024
2023-03-27T13:13:39.872Z,1052.5142
2023-03-27T13:14:40.002Z,1038.7936